Flight Track Log - Related Links

Times and Time Zones

All times are in EDT time to prevent confusion due to time zone crossing. See the VH-YNN flight status page for this flight to view local times or setup timezone preferences in your user account.

Time Position Orientation Groundspeed Altitude Reporting Facility
EDT Latitude Longitude Course Direction KTS MPH feet Rate Location/Type
Thu 05:42:47 AM -34.7811 138.6445 26° Northeast 66 76 1,000  Level Aus ATC (RADAR)
Thu 05:43:17 AM -34.7729 138.6494 26° Northeast 67 77 1,400 870 Climbing Aus ATC (RADAR)
Thu 05:43:56 AM -34.7616 138.6567 28° Northeast 71 82 2,000 835 Climbing Aus ATC (RADAR)
Thu 05:44:36 AM -34.7488 138.6651 28° Northeast 80 92 2,500 771 Climbing Aus ATC (RADAR)
Thu 05:45:06 AM -34.7390 138.6714 28° Northeast 80 92 2,900 825 Climbing Aus ATC (RADAR)
Thu 05:45:56 AM -34.7329 138.6911 69° East 93 107 3,600 706 Climbing Aus ATC (RADAR)
Thu 05:46:31 AM -34.7453 138.7059 136° Southeast 104 120 3,900 758 Climbing Aus ATC (RADAR)
Thu 05:47:31 AM -34.7662 138.7308 136° Southeast 103 119 4,800 660 Climbing Aus ATC (RADAR)
Thu 05:48:11 AM -34.7804 138.7476 136° Southeast 112 129 5,000 171 Climbing Aus ATC (RADAR)
Thu 05:48:41 AM -34.7930 138.7630 135° Southeast 125 144 5,000 100 Level Aus ATC (RADAR)
Thu 05:49:11 AM -34.8051 138.7782 134° Southeast 127 146 5,100  Climbing Aus ATC (RADAR)
Thu 05:49:51 AM -34.8221 138.7991 135° Southeast 130 150 5,000 -160 Descending Aus ATC (RADAR)
Thu 05:50:26 AM -34.8370 138.8176 134° Southeast 131 151 4,900 92 Descending Aus ATC (RADAR)
Thu 05:50:56 AM -34.8501 138.8329 136° Southeast 130 150 5,100 92 Climbing Aus ATC (RADAR)
Thu 05:51:31 AM -34.8653 138.8507 136° Southeast 129 148 5,000 -80 Descending Aus ATC (RADAR)
Thu 05:52:11 AM -34.8830 138.8714 136° Southeast 132 152 5,000 75 Level Aus ATC (RADAR)
Thu 05:52:51 AM -34.9030 138.8893 144° Southeast 132 152 5,100  Climbing Aus ATC (RADAR)
Thu 05:53:50 AM -34.9364 138.9090 154° Southeast 135 155 5,000  Descending Aus ATC (RADAR)
Thu 05:54:35 AM -34.9609 138.9245 153° Southeast 131 151 5,100  Climbing Aus ATC (RADAR)
Thu 05:55:10 AM -34.9798 138.9369 152° Southeast 133 153 5,000 -75 Descending Aus ATC (RADAR)
Thu 05:55:55 AM -35.0045 138.9523 153° Southeast 132 152 5,000 75 Level Aus ATC (RADAR)
Thu 05:56:30 AM -35.0238 138.9644 153° Southeast 131 151 5,100  Climbing Aus ATC (RADAR)
Thu 05:57:05 AM -35.0434 138.9771 152° Southeast 137 158 5,000  Descending Aus ATC (RADAR)
Thu 05:57:50 AM -35.0658 138.9967 144° Southeast 133 153 5,100 57 Climbing Aus ATC (RADAR)
Thu 05:58:50 AM -35.0886 139.0317 128° Southeast 132 152 5,100  Level Aus ATC (RADAR)
Thu 05:59:35 AM -35.1015 139.0611 118° Southeast 132 152 5,100  Level Aus ATC (RADAR)
Thu 06:00:06 AM -35.1096 139.0810 116° Southeast 131 151 5,100  Level Aus ATC (RADAR)
Thu 06:00:45 AM -35.1179 139.1081 110° East 129 148 5,100  Level Aus ATC (RADAR)
Thu 06:01:35 AM -35.1291 139.1428 112° Southeast 131 151 5,100  Level Aus ATC (RADAR)
Thu 06:02:05 AM -35.1358 139.1637 112° Southeast 132 152 5,100 -79 Level Aus ATC (RADAR)
Thu 06:02:51 AM -35.1440 139.1914 110° East 131 151 5,000 -55 Descending Aus ATC (RADAR)
Thu 06:03:54 AM -35.1588 139.2395 111° Southeast 128 147 5,000  Level Aus ATC (RADAR)
Thu 06:04:39 AM -35.1682 139.2701 110° East 129 148 5,000  Level Aus ATC (RADAR)
Thu 06:05:14 AM -35.1758 139.2938 112° Southeast 129 148 5,000 75 Level Aus ATC (RADAR)
Thu 06:05:59 AM -35.1867 139.3235 114° Southeast 128 147 5,100 57 Climbing Aus ATC (RADAR)
Thu 06:06:59 AM -35.1997 139.3643 111° Southeast 129 148 5,100 -171 Level Aus ATC (RADAR)
Thu 06:07:44 AM -35.2103 139.3954 113° Southeast 130 150 4,800 -525 Descending Aus ATC (RADAR)
Thu 06:08:19 AM -35.2182 139.4182 113° Southeast 125 144 4,400 -609 Descending Aus ATC (RADAR)
Thu 06:08:53 AM -35.2249 139.4412 110° East 123 142 4,100 -435 Descending Aus ATC (RADAR)
Thu 06:09:28 AM -35.2327 139.4627 114° Southeast 121 139 3,900 -86 Descending Aus ATC (RADAR)
Thu 06:10:03 AM -35.2391 139.4854 109° East 119 137 4,000 86 Climbing Aus ATC (RADAR)
Thu 06:10:38 AM -35.2434 139.5071 104° East 113 130 4,000  Level Aus ATC (RADAR)
Thu 06:11:18 AM -35.2431 139.5305 89° East 95 109 4,000  Level Aus ATC (RADAR)
Thu 06:11:53 AM -35.2271 139.5425 32° Northeast 110 127 4,000  Level Aus ATC (RADAR)
Thu 06:12:33 AM -35.2131 139.5552 36° Northeast 97 112 4,000 -60 Level Aus ATC (RADAR)
Thu 06:13:33 AM -35.2163 139.5274 262° West 100 115 3,900 58 Descending Aus ATC (RADAR)
Thu 06:14:17 AM -35.2416 139.5143 203° Southwest 127 146 4,100 76 Climbing Aus ATC (RADAR)
Thu 06:14:52 AM -35.2557 139.4981 223° Southwest 123 142 4,000 -86 Descending Aus ATC (RADAR)
Thu 06:15:27 AM -35.2510 139.4784 286° West 106 122 4,000 -91 Level Aus ATC (RADAR)
Thu 06:15:58 AM -35.2356 139.4857 21° North 106 122 3,900 92 Descending Aus ATC (RADAR)
Thu 06:16:32 AM -35.2225 139.4980 38° Northeast 103 119 4,100  Climbing Aus ATC (RADAR)
Thu 06:17:08 AM -35.2093 139.5106 38° Northeast 104 120 3,900 -80 Descending Aus ATC (RADAR)
Thu 06:17:47 AM -35.1960 139.5267 45° Northeast 110 127 4,000 81 Climbing Aus ATC (RADAR)
Thu 06:18:22 AM -35.2107 139.5408 142° Southeast 134 154 4,000  Level Aus ATC (RADAR)
Thu 06:19:07 AM -35.2311 139.5227 216° Southwest 124 143 4,000 57 Level Aus ATC (RADAR)
Thu 06:20:07 AM -35.2570 139.4994 216° Southwest 115 132 4,100 60 Climbing Aus ATC (RADAR)
Thu 06:20:47 AM -35.2782 139.4901 200° South 119 137 4,100 -150 Level Aus ATC (RADAR)
Thu 06:21:27 AM -35.2998 139.4801 201° Southwest 123 142 3,900 -75 Descending Aus ATC (RADAR)
Thu 06:22:07 AM -35.3210 139.4690 203° Southwest 123 142 4,000 -286 Climbing Aus ATC (RADAR)
Thu 06:23:12 AM -35.3309 139.4939 116° Southeast 103 119 3,400 -421 Descending Aus ATC (RADAR)
Thu 06:24:01 AM -35.3117 139.4986 11° North 85 98 3,200 -71 Descending Aus ATC (RADAR)
Thu 06:24:36 AM -35.2987 139.5013 10° North 82 94 3,300  Climbing Aus ATC (RADAR)
Thu 06:25:16 AM -35.2814 139.5052 11° North 94 108 3,200 -60 Descending Aus ATC (RADAR)
Thu 06:26:16 AM -35.2570 139.5080 North 87 100 3,200 218 Level Aus ATC (RADAR)
Thu 06:27:06 AM -35.2375 139.5110 North 85 98 3,600 600 Climbing Aus ATC (RADAR)
Thu 06:27:36 AM -35.2276 139.5131 10° North 76 87 4,000 369 Climbing Aus ATC (RADAR)
Thu 06:28:11 AM -35.2127 139.5144 North 91 105 4,000 86 Level Aus ATC (RADAR)
Thu 06:28:46 AM -35.2080 139.4964 288° West 102 117 4,100 86 Climbing Aus ATC (RADAR)
Thu 06:29:21 AM -35.2307 139.4898 193° South 143 165 4,100 -86 Level Aus ATC (RADAR)
Thu 06:29:56 AM -35.2449 139.5094 132° Southeast 135 155 4,000 -86 Descending Aus ATC (RADAR)
Thu 06:30:31 AM -35.2472 139.5298 98° East 100 115 4,000 -86 Level Aus ATC (RADAR)
Thu 06:31:06 AM -35.2314 139.5439 36° Northeast 115 132 3,900  Descending Aus ATC (RADAR)
Thu 06:31:46 AM -35.2166 139.5580 38° Northeast 104 120 4,000 80 Climbing Aus ATC (RADAR)
Thu 06:32:21 AM -35.2052 139.5509 333° Northwest 107 123 4,000  Level Aus ATC (RADAR)
Thu 06:32:56 AM -35.2206 139.5333 223° Southwest 122 140 4,000 80 Level Aus ATC (RADAR)
Thu 06:33:36 AM -35.2386 139.5162 218° Southwest 123 142 4,100  Climbing Aus ATC (RADAR)
Thu 06:34:06 AM -35.2509 139.5028 221° Southwest 120 138 4,000  Descending Aus ATC (RADAR)
Thu 06:34:40 AM -35.2701 139.4958 197° South 122 140 4,100 -76 Climbing Aus ATC (RADAR)
Thu 06:35:25 AM -35.2934 139.4832 204° Southwest 122 140 3,900 -75 Descending Aus ATC (RADAR)
Thu 06:36:00 AM -35.3111 139.4734 204° Southwest 120 138 4,000 -86 Climbing Aus ATC (RADAR)
Thu 06:36:35 AM -35.3312 139.4705 187° South 134 154 3,800 -450 Descending Aus ATC (RADAR)
Thu 06:37:20 AM -35.3311 139.4957 90° East 94 108 3,400 -450 Descending Aus ATC (RADAR)
Thu 06:37:55 AM -35.3165 139.4989 10° North 90 104 3,200 -225 Descending Aus ATC (RADAR)
Thu 06:38:40 AM -35.2993 139.5018 North 85 98 3,100  Descending Aus ATC (RADAR)
Thu 06:39:40 AM -35.2746 139.5049 North 91 105 3,200 60 Climbing Aus ATC (RADAR)
Thu 06:40:20 AM -35.2574 139.5077 North 93 107 3,200  Level Aus ATC (RADAR)
Thu 06:40:55 AM -35.2424 139.5094 North 94 108 3,200 514 Level Aus ATC (RADAR)
Thu 06:41:30 AM -35.2290 139.5124 10° North 84 97 3,800 640 Climbing Aus ATC (RADAR)
Thu 06:42:10 AM -35.2141 139.5153 North 84 97 4,000 240 Climbing Aus ATC (RADAR)
Thu 06:42:45 AM -35.1987 139.5192 12° North 94 108 4,100 -80 Climbing Aus ATC (RADAR)
Thu 06:43:25 AM -35.1822 139.5329 34° Northeast 120 138 3,900 -86 Descending Aus ATC (RADAR)
Thu 06:43:55 AM -35.1911 139.5515 120° Southeast 126 145 4,000 92 Climbing Aus ATC (RADAR)
Thu 06:44:30 AM -35.2135 139.5414 200° South 142 163 4,000  Level Aus ATC (RADAR)
Thu 06:45:10 AM -35.2283 139.5210 228° Southwest 122 140 4,000  Level Aus ATC (RADAR)
Thu 06:45:45 AM -35.2475 139.5068 211° Southwest 135 155 4,000  Level Aus ATC (RADAR)
Thu 06:46:20 AM -35.2603 139.4872 231° Southwest 132 152 4,000  Level Aus ATC (RADAR)
Thu 06:46:55 AM -35.2724 139.4666 234° Southwest 129 148 4,000 -61 Level Aus ATC (RADAR)
Thu 06:47:59 AM -35.2961 139.4294 232° Southwest 129 148 3,900  Descending Aus ATC (RADAR)
Thu 06:48:34 AM -35.3087 139.4090 233° Southwest 129 148 4,000 86 Climbing Aus ATC (RADAR)
Thu 06:49:09 AM -35.3220 139.3891 231° Southwest 129 148 4,000 86 Level Aus ATC (RADAR)
Thu 06:49:44 AM -35.3361 139.3697 228° Southwest 131 151 4,100  Climbing Aus ATC (RADAR)
Thu 06:50:34 AM -35.3545 139.3403 233° Southwest 132 152 4,000 -71 Descending Aus ATC (RADAR)
Thu 06:51:09 AM -35.3676 139.3206 231° Southwest 129 148 4,000  Level Aus ATC (RADAR)
Thu 06:51:59 AM -35.3859 139.2922 232° Southwest 127 146 4,000  Level Aus ATC (RADAR)
Thu 06:52:29 AM -35.3970 139.2753 231° Southwest 128 147 4,000  Level Aus ATC (RADAR)
Thu 06:53:04 AM -35.4107 139.2554 230° Southwest 130 150 4,000  Level Aus ATC (RADAR)
Thu 06:53:34 AM -35.4171 139.2351 249° West 141 162 4,000 86 Level Aus ATC (RADAR)
Thu 06:54:14 AM -35.4039 139.2156 310° West 112 129 4,100 75 Climbing Aus ATC (RADAR)
Thu 06:54:54 AM -35.3908 139.1960 309° West 111 128 4,100 -60 Level Aus ATC (RADAR)
Thu 06:55:54 AM -35.3731 139.1637 304° West 117 135 4,000 -55 Descending Aus ATC (RADAR)
Thu 06:56:44 AM -35.3568 139.1380 308° West 114 131 4,000  Level Aus ATC (RADAR)
Thu 06:57:18 AM -35.3450 139.1209 310° West 113 130 4,000  Level Aus ATC (RADAR)
Thu 06:58:03 AM -35.3318 139.0967 304° West 114 131 4,000 -57 Level Aus ATC (RADAR)
Thu 06:59:03 AM -35.3120 139.0667 309° West 112 129 3,900  Descending Aus ATC (RADAR)
Thu 06:59:43 AM -35.2998 139.0471 308° West 108 124 4,000 160 Climbing Aus ATC (RADAR)
Thu 07:00:18 AM -35.2891 139.0301 307° West 107 123 4,100 86 Climbing Aus ATC (RADAR)
Thu 07:00:53 AM -35.2772 139.0148 314° West 107 123 4,100  Level Aus ATC (RADAR)
Thu 07:01:28 AM -35.2655 138.9986 312° West 110 127 4,100 -86 Level Aus ATC (RADAR)
Thu 07:02:03 AM -35.2548 138.9810 307° West 111 128 4,000 -71 Descending Aus ATC (RADAR)
Thu 07:02:53 AM -35.2383 138.9565 309° West 111 128 4,000  Level Aus ATC (RADAR)
Thu 07:03:53 AM -35.2192 138.9278 309° West 109 125 4,000  Level Aus ATC (RADAR)
Thu 07:04:33 AM -35.2065 138.9086 309° West 111 128 4,000  Level Aus ATC (RADAR)
Thu 07:05:08 AM -35.1949 138.8919 310° West 112 129 4,000  Level Aus ATC (RADAR)
Thu 07:05:48 AM -35.1822 138.8723 308° West 110 127 4,000  Level Aus ATC (RADAR)
Thu 07:06:28 AM -35.1696 138.8524 308° West 112 129 4,000 81 Level Aus ATC (RADAR)
Thu 07:07:02 AM -35.1584 138.8349 308° West 110 127 4,100 261 Climbing Aus ATC (RADAR)
Thu 07:07:37 AM -35.1466 138.8200 314° West 104 120 4,300 554 Climbing Aus ATC (RADAR)
Thu 07:08:07 AM -35.1350 138.8188 355° North 86 99 4,700 646 Climbing Aus ATC (RADAR)
Thu 07:08:42 AM -35.1213 138.8189 360° North 86 99 5,000 343 Climbing Aus ATC (RADAR)
Thu 07:09:17 AM -35.1049 138.8190 360° North 99 114 5,100  Climbing Aus ATC (RADAR)
Thu 07:09:52 AM -35.0871 138.8191 360° North 110 127 5,000 -92 Descending Aus ATC (RADAR)
Thu 07:10:22 AM -35.0714 138.8191 360° North 113 130 5,000  Level Aus ATC (RADAR)
Thu 07:10:57 AM -35.0533 138.8191 360° North 111 128 5,000  Level Aus ATC (RADAR)
Thu 07:11:32 AM -35.0348 138.8193 360° North 114 131 5,000  Level Aus ATC (RADAR)
Thu 07:12:07 AM -35.0170 138.8188 359° North 110 127 5,000  Level Aus ATC (RADAR)
Thu 07:12:42 AM -34.9987 138.8189 360° North 113 130 5,000  Level Aus ATC (RADAR)
Thu 07:13:12 AM -34.9833 138.8192 North 114 131 5,000  Level Aus ATC (RADAR)
Thu 07:13:47 AM -34.9653 138.8192 360° North 110 127 5,000  Level Aus ATC (RADAR)
Thu 07:14:22 AM -34.9474 138.8194 360° North 110 127 5,000  Level Aus ATC (RADAR)
Thu 07:14:57 AM -34.9298 138.8199 North 108 124 5,000  Level Aus ATC (RADAR)
Thu 07:15:32 AM -34.9124 138.8200 360° North 109 125 5,000 75 Level Aus ATC (RADAR)
Thu 07:16:17 AM -34.8901 138.8197 359° North 104 120 5,100  Climbing Aus ATC (RADAR)
Thu 07:17:17 AM -34.8604 138.8197 360° North 105 121 5,000 -60 Descending Aus ATC (RADAR)
Thu 07:17:57 AM -34.8423 138.8107 338° Northwest 106 122 5,000  Level Aus ATC (RADAR)
Thu 07:18:27 AM -34.8287 138.8036 337° Northwest 106 122 5,000  Level Aus ATC (RADAR)
Thu 07:19:02 AM -34.8130 138.7954 337° Northwest 105 121 5,000  Level Aus ATC (RADAR)
Thu 07:19:37 AM -34.7976 138.7871 336° Northwest 104 120 5,000  Level Aus ATC (RADAR)
Thu 07:20:07 AM -34.7841 138.7799 336° Northwest 107 123 5,000  Level Aus ATC (RADAR)
Thu 07:20:42 AM -34.7684 138.7715 336° Northwest 106 122 5,000  Level Aus ATC (RADAR)
Thu 07:21:21 AM -34.7502 138.7614 335° Northwest 107 123 5,000  Level Aus ATC (RADAR)
Thu 07:21:51 AM -34.7368 138.7537 335° Northwest 106 122 5,000  Level Aus ATC (RADAR)
Thu 07:22:26 AM -34.7208 138.7476 343° North 105 121 5,000  Level Aus ATC (RADAR)
Thu 07:23:01 AM -34.7040 138.7481 North 103 119 5,000  Level Aus ATC (RADAR)
Thu 07:23:36 AM -34.6869 138.7488 North 105 121 5,000  Level Aus ATC (RADAR)
Thu 07:24:11 AM -34.6702 138.7492 North 103 119 5,000  Level Aus ATC (RADAR)
Thu 07:24:51 AM -34.6511 138.7483 358° North 103 119 5,000  Level Aus ATC (RADAR)
Thu 07:25:26 AM -34.6340 138.7488 North 106 122 5,000  Level Aus ATC (RADAR)
Thu 07:26:01 AM -34.6173 138.7491 North 105 121 5,000  Level Aus ATC (RADAR)
Thu 07:26:41 AM -34.5980 138.7490 360° North 106 122 5,000  Level Aus ATC (RADAR)
Thu 07:27:16 AM -34.5807 138.7497 North 106 122 5,000  Level Aus ATC (RADAR)
Thu 07:27:56 AM -34.5612 138.7505 North 105 121 5,000  Level Aus ATC (RADAR)
Thu 07:28:26 AM -34.5464 138.7509 North 107 123 5,000  Level Aus ATC (RADAR)
Thu 07:29:01 AM -34.5286 138.7520 North 109 125 5,000  Level Aus ATC (RADAR)
Thu 07:29:36 AM -34.5114 138.7524 North 107 123 5,000  Level Aus ATC (RADAR)
Thu 07:30:06 AM -34.4962 138.7540 North 109 125 5,000  Level Aus ATC (RADAR)
Thu 07:30:41 AM -34.4791 138.7548 North 106 122 5,000  Level Aus ATC (RADAR)
Thu 07:31:16 AM -34.4620 138.7555 North 104 120 5,000  Level Aus ATC (RADAR)
Thu 07:31:46 AM -34.4474 138.7567 North 104 120 5,000  Level Aus ATC (RADAR)
Thu 07:32:20 AM -34.4302 138.7576 North 104 120 5,000  Level Aus ATC (RADAR)
Thu 07:32:55 AM -34.4131 138.7587 North 105 121 5,000 92 Level Aus ATC (RADAR)
Thu 07:33:25 AM -34.4099 138.7392 281° West 106 122 5,100  Climbing Aus ATC (RADAR)
Thu 07:34:01 AM -34.4094 138.7152 271° West 121 139 5,000  Descending Aus ATC (RADAR)
Thu 07:34:35 AM -34.4110 138.6934 265° West 114 131 5,100  Climbing Aus ATC (RADAR)
Thu 07:35:05 AM -34.4255 138.6779 221° Southwest 135 155 5,000 -92 Descending Aus ATC (RADAR)
Thu 07:35:40 AM -34.4433 138.6632 214° Southwest 137 158 5,000 -343 Level Aus ATC (RADAR)
Thu 07:36:15 AM -34.4649 138.6589 189° South 137 158 4,600 -600 Descending Aus ATC (RADAR)
Thu 07:36:50 AM -34.4866 138.6562 186° South 135 155 4,300 -686 Descending Aus ATC (RADAR)
Thu 07:37:25 AM -34.5083 138.6516 190° South 137 158 3,800 -857 Descending Aus ATC (RADAR)
Thu 07:38:00 AM -34.5306 138.6474 189° South 137 158 3,300 -738 Descending Aus ATC (RADAR)
Thu 07:38:30 AM -34.5478 138.6437 190° South 127 146 3,000 -646 Descending Aus ATC (RADAR)
Thu 07:39:05 AM -34.5693 138.6403 187° South 133 153 2,600 -686 Descending Aus ATC (RADAR)
Thu 07:39:40 AM -34.5916 138.6368 188° South 138 159 2,200 -730 Descending Aus ATC (RADAR)
Thu 07:40:19 AM -34.6161 138.6321 189° South 133 153 1,700 -800 Descending Aus ATC (RADAR)
Thu 07:40:55 AM -34.6379 138.6277 189° South 136 157 1,200 -720 Descending Aus ATC (RADAR)
Thu 07:41:34 AM -34.6621 138.6236 188° South 133 153 800 -649 Descending Aus ATC (RADAR)
Thu 07:42:09 AM -34.6831 138.6193 190° South 131 151 400  Descending Aus ATC (RADAR)
Thu 07:42:39 AM -34.7000 138.6147 193° South 127 146 800 900 Climbing Aus ATC (RADAR)
Thu 07:43:29 AM -34.7049 138.5892 257° West 96 110 1,600 914 Climbing Aus ATC (RADAR)
Thu 07:44:24 AM -34.6858 138.5847 349° North 76 87 2,400 900 Climbing Aus ATC (RADAR)
Thu 07:45:09 AM -34.6707 138.5807 348° North 73 84 3,100 918 Climbing Aus ATC (RADAR)
Thu 07:45:49 AM -34.6569 138.5779 350° North 74 85 3,700 776 Climbing Aus ATC (RADAR)
Thu 07:46:34 AM -34.6403 138.5736 348° North 83 96 4,200 660 Climbing Aus ATC (RADAR)
Thu 07:47:29 AM -34.6199 138.5683 348° North 82 94 4,800 282 Climbing Aus ATC (RADAR)
Thu 07:49:24 AM -34.5687 138.5547 348° North 99 114 5,000 83 Climbing Aus ATC (RADAR)
Thu 07:49:54 AM -34.5552 138.5568 North 97 112 5,000  Level Aus ATC (RADAR)
Thu 07:50:28 AM -34.5392 138.5614 13° North 102 117 5,000  Level Aus ATC (RADAR)
Thu 07:51:03 AM -34.5232 138.5640 North 100 115 5,000  Level Aus ATC (RADAR)
Thu 07:51:34 AM -34.5091 138.5679 13° North 103 119 5,000  Level Aus ATC (RADAR)
Thu 07:52:38 AM -34.4792 138.5740 10° North 102 117 5,000  Level Aus ATC (RADAR)
Thu 07:53:13 AM -34.4629 138.5777 11° North 102 117 5,000  Level Aus ATC (RADAR)
Thu 07:53:43 AM -34.4490 138.5814 12° North 102 117 5,000  Level Aus ATC (RADAR)
Thu 07:54:18 AM -34.4327 138.5845 North 101 116 5,000  Level Aus ATC (RADAR)
Thu 07:54:48 AM -34.4192 138.5882 13° North 100 115 5,000  Level Aus ATC (RADAR)
Thu 07:55:23 AM -34.4028 138.5924 12° North 103 119 5,000 86 Level Aus ATC (RADAR)
Thu 07:55:58 AM -34.3874 138.5988 19° North 100 115 5,100 -92 Climbing Aus ATC (RADAR)
Thu 07:56:28 AM -34.3872 138.6183 89° East 115 132 4,900 -92 Descending Aus ATC (RADAR)
Thu 07:57:03 AM -34.3938 138.6404 110° East 119 137 5,000 86 Climbing Aus ATC (RADAR)
Thu 07:57:38 AM -34.4105 138.6549 144° Southeast 134 154 5,000  Level Aus ATC (RADAR)
Thu 07:58:38 AM -34.4459 138.6629 169° South 132 152 5,000 -253 Level Aus ATC (RADAR)
Thu 07:59:13 AM -34.4675 138.6584 190° South 133 153 4,600 -640 Descending Aus ATC (RADAR)
Thu 07:59:53 AM -34.4919 138.6542 188° South 134 154 4,200 -640 Descending Aus ATC (RADAR)
Thu 08:00:28 AM -34.5131 138.6513 186° South 132 152 3,800 -783 Descending Aus ATC (RADAR)
Thu 08:01:02 AM -34.5346 138.6467 190° South 135 155 3,300 -844 Descending Aus ATC (RADAR)
Thu 08:01:32 AM -34.5536 138.6419 192° South 138 159 2,900 -800 Descending Aus ATC (RADAR)
Thu 08:02:02 AM -34.5720 138.6395 186° South 134 154 2,500 -738 Descending Aus ATC (RADAR)
Thu 08:02:37 AM -34.5935 138.6359 188° South 134 154 2,100 -646 Descending Aus ATC (RADAR)
Thu 08:03:07 AM -34.6116 138.6327 188° South 132 152 1,800 -738 Descending Aus ATC (RADAR)
Thu 08:03:42 AM -34.6330 138.6285 189° South 133 153 1,300 -686 Descending Aus ATC (RADAR)
Thu 08:04:17 AM -34.6535 138.6248 188° South 127 146 1,000 -640 Descending Aus ATC (RADAR)
Thu 08:04:57 AM -34.6766 138.6211 188° South 126 145 500 -240 Descending Aus ATC (RADAR)
Thu 08:05:32 AM -34.6962 138.6162 192° South 124 143 700 686 Climbing Aus ATC (RADAR)
Thu 08:06:07 AM -34.7057 138.5989 236° Southwest 112 129 1,300 947 Climbing Aus ATC (RADAR)
Thu 08:07:07 AM -34.6862 138.5877 335° Northwest 74 85 2,200 947 Climbing Aus ATC (RADAR)
Thu 08:07:42 AM -34.6751 138.5839 344° North 70 81 2,800 720 Climbing Aus ATC (RADAR)
Thu 08:08:22 AM -34.6637 138.5733 323° Northwest 88 101 3,100 160 Climbing Aus ATC (RADAR)
Thu 08:08:57 AM -34.6771 138.5522 232° Southwest 133 153 3,000 -80 Descending Aus ATC (RADAR)
Thu 08:09:37 AM -34.7020 138.5437 196° South 138 159 3,000 -64 Level Aus ATC (RADAR)
Thu 08:10:31 AM -34.7350 138.5307 198° South 139 160 2,900  Descending Aus ATC (RADAR)
Thu 08:11:16 AM -34.7627 138.5202 197° South 137 158 3,000 -114 Climbing Aus ATC (RADAR)
Thu 08:12:16 AM -34.7972 138.5073 197° South 129 148 2,700 -480 Descending Aus ATC (RADAR)
Thu 08:12:56 AM -34.8213 138.5015 191° South 131 151 2,200 -686 Descending Aus ATC (RADAR)
Thu 08:13:26 AM -34.8324 138.5164 133° Southeast 123 142 1,900 -369 Descending Aus ATC (RADAR)
Thu 08:14:01 AM -34.8359 138.5373 101° East 108 124 1,800 -92 Descending Aus ATC (RADAR)
Thu 08:14:31 AM -34.8314 138.5542 72° East 104 120 1,800  Level Aus ATC (RADAR)
Thu 08:15:06 AM -34.8265 138.5725 72° East 99 114 1,800  Level Aus ATC (RADAR)
Thu 08:15:41 AM -34.8223 138.5909 74° East 97 112 1,800 -92 Level Aus ATC (RADAR)
Thu 08:16:11 AM -34.8180 138.6062 71° East 95 109 1,700 -277 Descending Aus ATC (RADAR)
Thu 08:16:46 AM -34.8129 138.6236 70° East 95 109 1,500 -185 Descending Aus ATC (RADAR)
Thu 08:17:16 AM -34.8067 138.6370 60° Northeast 92 106 1,500 -188 Level Aus ATC (RADAR)
Thu 08:17:50 AM -34.7954 138.6483 39° Northeast 90 104 1,300 -435 Descending Aus ATC (RADAR)
Thu 08:18:25 AM -34.7825 138.6505 North 86 99 1,000 -277 Descending Aus ATC (RADAR)
Thu 08:18:55 AM -34.7743 138.6354 304° West 103 119 1,000  Level Aus ATC (RADAR)
Thu 08:19:30 AM -34.7850 138.6171 234° Southwest 126 145 1,000  Level Aus ATC (RADAR)
Thu 08:20:10 AM -34.8055 138.6035 209° Southwest 127 146 1,000  Level Aus ATC (RADAR)

Login

Don't have an account? Register now (free) for customized features, flight alerts, and more!